sensor_id;sensor_type;location;lat;lon;timestamp;temperature;humidity
16503;DHT22;53067;48.114;11.694;2022-10-04T00:04:26;9.20;75.40
16503;DHT22;53067;48.114;11.694;2022-10-04T00:07:00;9.20;75.50
16503;DHT22;53067;48.114;11.694;2022-10-04T00:09:39;9.20;75.50
16503;DHT22;53067;48.114;11.694;2022-10-04T00:12:04;9.20;75.50
16503;DHT22;53067;48.114;11.694;2022-10-04T00:14:37;9.30;75.90
16503;DHT22;53067;48.114;11.694;2022-10-04T00:17:11;9.30;75.90
16503;DHT22;53067;48.114;11.694;2022-10-04T00:19:46;9.30;76.00
16503;DHT22;53067;48.114;11.694;2022-10-04T00:22:13;9.30;76.00
16503;DHT22;53067;48.114;11.694;2022-10-04T00:27:39;9.40;76.00
16503;DHT22;53067;48.114;11.694;2022-10-04T00:32:46;9.40;76.30
16503;DHT22;53067;48.114;11.694;2022-10-04T00:40:31;9.40;76.20
16503;DHT22;53067;48.114;11.694;2022-10-04T00:43:01;9.40;76.20
16503;DHT22;53067;48.114;11.694;2022-10-04T00:45:35;9.40;76.20
16503;DHT22;53067;48.114;11.694;2022-10-04T00:48:17;9.40;76.30
16503;DHT22;53067;48.114;11.694;2022-10-04T00:50:47;9.40;76.20
16503;DHT22;53067;48.114;11.694;2022-10-04T00:53:20;9.40;76.20
16503;DHT22;53067;48.114;11.694;2022-10-04T00:55:55;9.40;76.20
16503;DHT22;53067;48.114;11.694;2022-10-04T00:58:32;9.40;75.80
16503;DHT22;53067;48.114;11.694;2022-10-04T01:01:01;9.40;75.90
16503;DHT22;53067;48.114;11.694;2022-10-04T01:03:39;9.30;75.80
16503;DHT22;53067;48.114;11.694;2022-10-04T01:06:04;9.30;75.60
16503;DHT22;53067;48.114;11.694;2022-10-04T01:08:40;9.30;75.70
16503;DHT22;53067;48.114;11.694;2022-10-04T01:11:05;9.30;75.70
16503;DHT22;53067;48.114;11.694;2022-10-04T01:13:40;9.20;75.60
16503;DHT22;53067;48.114;11.694;2022-10-04T01:16:25;9.20;75.70
16503;DHT22;53067;48.114;11.694;2022-10-04T01:18:53;9.20;75.70
16503;DHT22;53067;48.114;11.694;2022-10-04T01:31:46;9.00;75.40
16503;DHT22;53067;48.114;11.694;2022-10-04T01:34:17;9.00;75.40
16503;DHT22;53067;48.114;11.694;2022-10-04T01:36:46;9.00;75.50
16503;DHT22;53067;48.114;11.694;2022-10-04T01:39:16;9.00;75.50
16503;DHT22;53067;48.114;11.694;2022-10-04T01:42:05;8.90;75.60
16503;DHT22;53067;48.114;11.694;2022-10-04T01:44:44;8.90;75.60
16503;DHT22;53067;48.114;11.694;2022-10-04T01:47:22;8.90;75.50
16503;DHT22;53067;48.114;11.694;2022-10-04T01:49:47;8.90;75.40
16503;DHT22;53067;48.114;11.694;2022-10-04T01:52:20;8.80;75.50
16503;DHT22;53067;48.114;11.694;2022-10-04T01:54:57;8.80;75.60
16503;DHT22;53067;48.114;11.694;2022-10-04T01:57:21;8.70;75.60
16503;DHT22;53067;48.114;11.694;2022-10-04T01:59:51;8.70;75.60
16503;DHT22;53067;48.114;11.694;2022-10-04T02:02:25;8.70;75.70
16503;DHT22;53067;48.114;11.694;2022-10-04T02:04:55;8.70;75.60
16503;DHT22;53067;48.114;11.694;2022-10-04T02:07:27;8.70;75.50
16503;DHT22;53067;48.114;11.694;2022-10-04T02:09:56;8.70;75.30
16503;DHT22;53067;48.114;11.694;2022-10-04T02:12:27;8.70;75.40
16503;DHT22;53067;48.114;11.694;2022-10-04T02:14:59;8.60;75.60
16503;DHT22;53067;48.114;11.694;2022-10-04T02:17:30;8.60;75.60
16503;DHT22;53067;48.114;11.694;2022-10-04T02:19:59;8.50;75.70
16503;DHT22;53067;48.114;11.694;2022-10-04T02:22:28;8.50;75.70
16503;DHT22;53067;48.114;11.694;2022-10-04T02:24:57;8.50;75.90
16503;DHT22;53067;48.114;11.694;2022-10-04T02:27:28;8.50;76.80
16503;DHT22;53067;48.114;11.694;2022-10-04T02:30:01;8.40;76.00
16503;DHT22;53067;48.114;11.694;2022-10-04T02:32:30;8.40;76.10
16503;DHT22;53067;48.114;11.694;2022-10-04T02:35:16;8.50;76.20
16503;DHT22;53067;48.114;11.694;2022-10-04T02:37:51;8.40;76.10
16503;DHT22;53067;48.114;11.694;2022-10-04T02:40:17;8.40;76.00
16503;DHT22;53067;48.114;11.694;2022-10-04T02:42:53;8.40;76.00
16503;DHT22;53067;48.114;11.694;2022-10-04T02:48:10;8.40;75.90
16503;DHT22;53067;48.114;11.694;2022-10-04T02:50:38;8.40;76.00
16503;DHT22;53067;48.114;11.694;2022-10-04T02:55:48;8.30;75.90
16503;DHT22;53067;48.114;11.694;2022-10-04T02:58:18;8.30;75.80
16503;DHT22;53067;48.114;11.694;2022-10-04T03:00:49;8.30;75.60
16503;DHT22;53067;48.114;11.694;2022-10-04T03:03:35;8.30;75.70
16503;DHT22;53067;48.114;11.694;2022-10-04T03:06:14;8.20;75.70
16503;DHT22;53067;48.114;11.694;2022-10-04T03:08:53;8.20;75.70
16503;DHT22;53067;48.114;11.694;2022-10-04T03:11:17;8.20;75.70
16503;DHT22;53067;48.114;11.694;2022-10-04T03:13:51;8.20;75.60
16503;DHT22;53067;48.114;11.694;2022-10-04T03:16:20;8.20;75.50
16503;DHT22;53067;48.114;11.694;2022-10-04T03:18:51;8.20;75.20
16503;DHT22;53067;48.114;11.694;2022-10-04T03:21:21;8.10;75.00
16503;DHT22;53067;48.114;11.694;2022-10-04T03:23:50;8.10;75.00
16503;DHT22;53067;48.114;11.694;2022-10-04T03:29:00;8.10;75.30
16503;DHT22;53067;48.114;11.694;2022-10-04T03:31:29;8.00;75.30
16503;DHT22;53067;48.114;11.694;2022-10-04T03:33:58;8.10;75.40
16503;DHT22;53067;48.114;11.694;2022-10-04T03:36:26;8.00;75.60
16503;DHT22;53067;48.114;11.694;2022-10-04T03:38:55;8.00;75.70
16503;DHT22;53067;48.114;11.694;2022-10-04T03:41:24;8.00;75.70
16503;DHT22;53067;48.114;11.694;2022-10-04T03:43:53;7.90;75.50
16503;DHT22;53067;48.114;11.694;2022-10-04T03:46:23;7.90;75.60
16503;DHT22;53067;48.114;11.694;2022-10-04T03:48:52;7.90;75.60
16503;DHT22;53067;48.114;11.694;2022-10-04T03:51:23;7.90;75.70
16503;DHT22;53067;48.114;11.694;2022-10-04T03:54:00;7.90;76.40
16503;DHT22;53067;48.114;11.694;2022-10-04T03:56:27;7.90;75.80
16503;DHT22;53067;48.114;11.694;2022-10-04T03:58:55;7.90;75.80
16503;DHT22;53067;48.114;11.694;2022-10-04T04:01:38;7.80;75.60
16503;DHT22;53067;48.114;11.694;2022-10-04T04:07:06;7.80;76.00
16503;DHT22;53067;48.114;11.694;2022-10-04T04:12:15;7.80;76.20
16503;DHT22;53067;48.114;11.694;2022-10-04T04:14:42;7.70;76.20
16503;DHT22;53067;48.114;11.694;2022-10-04T04:18:01;7.70;76.10
16503;DHT22;53067;48.114;11.694;2022-10-04T04:19:44;7.70;76.00
16503;DHT22;53067;48.114;11.694;2022-10-04T04:22:16;7.70;76.00
16503;DHT22;53067;48.114;11.694;2022-10-04T04:24:45;7.80;76.20
16503;DHT22;53067;48.114;11.694;2022-10-04T04:27:15;7.70;76.20
16503;DHT22;53067;48.114;11.694;2022-10-04T04:29:47;7.70;76.10
16503;DHT22;53067;48.114;11.694;2022-10-04T04:32:34;7.70;76.00
16503;DHT22;53067;48.114;11.694;2022-10-04T04:34:59;7.70;76.00
16503;DHT22;53067;48.114;11.694;2022-10-04T04:37:28;7.70;75.90
16503;DHT22;53067;48.114;11.694;2022-10-04T04:39:56;7.70;76.00
16503;DHT22;53067;48.114;11.694;2022-10-04T04:42:31;7.80;75.90
16503;DHT22;53067;48.114;11.694;2022-10-04T04:45:05;7.80;75.70
16503;DHT22;53067;48.114;11.694;2022-10-04T04:47:45;7.80;75.70
16503;DHT22;53067;48.114;11.694;2022-10-04T04:50:25;7.80;75.60
16503;DHT22;53067;48.114;11.694;2022-10-04T04:52:54;7.80;75.60
16503;DHT22;53067;48.114;11.694;2022-10-04T04:55:25;7.80;75.40
16503;DHT22;53067;48.114;11.694;2022-10-04T04:57:56;7.80;75.30
16503;DHT22;53067;48.114;11.694;2022-10-04T05:00:30;7.80;75.50
16503;DHT22;53067;48.114;11.694;2022-10-04T05:03:00;7.70;75.40
16503;DHT22;53067;48.114;11.694;2022-10-04T05:05:30;7.70;75.30
16503;DHT22;53067;48.114;11.694;2022-10-04T05:10:46;7.70;75.30
16503;DHT22;53067;48.114;11.694;2022-10-04T05:13:15;7.70;75.30
16503;DHT22;53067;48.114;11.694;2022-10-04T05:18:33;7.70;75.20
16503;DHT22;53067;48.114;11.694;2022-10-04T05:21:21;7.70;75.30
16503;DHT22;53067;48.114;11.694;2022-10-04T05:23:48;7.70;75.40
16503;DHT22;53067;48.114;11.694;2022-10-04T05:26:21;7.70;75.20
16503;DHT22;53067;48.114;11.694;2022-10-04T05:28:47;7.70;75.20
16503;DHT22;53067;48.114;11.694;2022-10-04T05:34:29;7.70;75.30
16503;DHT22;53067;48.114;11.694;2022-10-04T05:42:44;7.70;75.80
16503;DHT22;53067;48.114;11.694;2022-10-04T05:45:21;7.60;76.10
16503;DHT22;53067;48.114;11.694;2022-10-04T05:47:53;7.70;76.30
16503;DHT22;53067;48.114;11.694;2022-10-04T05:50:30;7.70;76.40
16503;DHT22;53067;48.114;11.694;2022-10-04T05:53:20;7.70;77.40
16503;DHT22;53067;48.114;11.694;2022-10-04T05:56:08;7.80;76.60
16503;DHT22;53067;48.114;11.694;2022-10-04T06:04:29;8.00;77.00
16503;DHT22;53067;48.114;11.694;2022-10-04T06:09:43;8.00;77.20
16503;DHT22;53067;48.114;11.694;2022-10-04T06:21:20;8.40;77.80
16503;DHT22;53067;48.114;11.694;2022-10-04T06:23:21;8.50;78.00
16503;DHT22;53067;48.114;11.694;2022-10-04T06:25:59;8.60;78.30
16503;DHT22;53067;48.114;11.694;2022-10-04T06:28:35;8.70;78.50
16503;DHT22;53067;48.114;11.694;2022-10-04T06:34:33;8.90;78.70
16503;DHT22;53067;48.114;11.694;2022-10-04T06:42:21;9.10;78.60
16503;DHT22;53067;48.114;11.694;2022-10-04T06:45:08;9.20;78.60
16503;DHT22;53067;48.114;11.694;2022-10-04T06:50:25;9.40;78.30
16503;DHT22;53067;48.114;11.694;2022-10-04T06:53:00;9.40;78.50
16503;DHT22;53067;48.114;11.694;2022-10-04T06:58:23;9.60;78.60
16503;DHT22;53067;48.114;11.694;2022-10-04T07:06:09;9.90;78.60
16503;DHT22;53067;48.114;11.694;2022-10-04T07:08:51;10.00;78.80
16503;DHT22;53067;48.114;11.694;2022-10-04T07:11:30;10.00;78.80
16503;DHT22;53067;48.114;11.694;2022-10-04T07:14:08;10.20;78.90
16503;DHT22;53067;48.114;11.694;2022-10-04T07:16:46;10.30;79.70
16503;DHT22;53067;48.114;11.694;2022-10-04T07:30:22;10.80;78.50
16503;DHT22;53067;48.114;11.694;2022-10-04T07:32:50;11.00;78.40
16503;DHT22;53067;48.114;11.694;2022-10-04T07:35:27;11.10;78.40
16503;DHT22;53067;48.114;11.694;2022-10-04T07:41:07;11.30;78.30
16503;DHT22;53067;48.114;11.694;2022-10-04T07:43:54;11.40;78.10
16503;DHT22;53067;48.114;11.694;2022-10-04T07:46:59;11.50;78.00
16503;DHT22;53067;48.114;11.694;2022-10-04T07:48:41;11.60;78.00
16503;DHT22;53067;48.114;11.694;2022-10-04T07:51:25;11.70;77.80
16503;DHT22;53067;48.114;11.694;2022-10-04T07:54:01;11.90;77.80
16503;DHT22;53067;48.114;11.694;2022-10-04T07:56:30;12.00;77.60
16503;DHT22;53067;48.114;11.694;2022-10-04T08:05:01;12.30;76.80
16503;DHT22;53067;48.114;11.694;2022-10-04T08:13:19;12.60;76.80
16503;DHT22;53067;48.114;11.694;2022-10-04T08:15:44;12.70;76.60
16503;DHT22;53067;48.114;11.694;2022-10-04T08:18:29;12.70;76.20
16503;DHT22;53067;48.114;11.694;2022-10-04T08:29:10;13.20;75.50
16503;DHT22;53067;48.114;11.694;2022-10-04T08:38:00;13.60;74.80
16503;DHT22;53067;48.114;11.694;2022-10-04T08:41:50;13.70;73.90
16503;DHT22;53067;48.114;11.694;2022-10-04T08:48:59;14.10;72.30
16503;DHT22;53067;48.114;11.694;2022-10-04T08:51:50;14.20;71.50
16503;DHT22;53067;48.114;11.694;2022-10-04T09:00:07;14.50;71.70
16503;DHT22;53067;48.114;11.694;2022-10-04T09:25:54;15.50;67.60
16503;DHT22;53067;48.114;11.694;2022-10-04T09:28:50;15.70;67.20
16503;DHT22;53067;48.114;11.694;2022-10-04T09:31:33;15.90;66.50
16503;DHT22;53067;48.114;11.694;2022-10-04T09:34:02;16.10;65.60
16503;DHT22;53067;48.114;11.694;2022-10-04T09:36:53;16.20;64.10
16503;DHT22;53067;48.114;11.694;2022-10-04T09:39:25;16.30;64.40
16503;DHT22;53067;48.114;11.694;2022-10-04T09:47:33;16.70;62.80
16503;DHT22;53067;48.114;11.694;2022-10-04T09:50:21;16.90;62.10
16503;DHT22;53067;48.114;11.694;2022-10-04T09:58:22;17.40;60.10
16503;DHT22;53067;48.114;11.694;2022-10-04T10:00:54;17.60;59.60
16503;DHT22;53067;48.114;11.694;2022-10-04T10:08:58;18.40;57.80
16503;DHT22;53067;48.114;11.694;2022-10-04T10:11:36;18.60;57.00
16503;DHT22;53067;48.114;11.694;2022-10-04T10:20:01;18.60;56.30
16503;DHT22;53067;48.114;11.694;2022-10-04T10:28:30;18.50;56.90
16503;DHT22;53067;48.114;11.694;2022-10-04T10:31:13;18.50;56.80
16503;DHT22;53067;48.114;11.694;2022-10-04T10:36:53;18.40;56.50
16503;DHT22;53067;48.114;11.694;2022-10-04T10:42:56;18.50;56.40
16503;DHT22;53067;48.114;11.694;2022-10-04T10:48:15;19.00;56.00
16503;DHT22;53067;48.114;11.694;2022-10-04T10:50:53;19.40;55.20
16503;DHT22;53067;48.114;11.694;2022-10-04T11:04:29;22.60;49.60
16503;DHT22;53067;48.114;11.694;2022-10-04T11:07:16;23.20;47.80
16503;DHT22;53067;48.114;11.694;2022-10-04T11:12:50;24.00;46.10
16503;DHT22;53067;48.114;11.694;2022-10-04T11:26:49;24.20;43.90
16503;DHT22;53067;48.114;11.694;2022-10-04T11:29:32;24.00;43.80
16503;DHT22;53067;48.114;11.694;2022-10-04T11:37:39;24.80;42.80
16503;DHT22;53067;48.114;11.694;2022-10-04T11:40:17;25.20;42.20
16503;DHT22;53067;48.114;11.694;2022-10-04T11:42:56;25.40;41.10
16503;DHT22;53067;48.114;11.694;2022-10-04T11:48:19;26.20;40.00
16503;DHT22;53067;48.114;11.694;2022-10-04T12:10:42;29.60;33.60
16503;DHT22;53067;48.114;11.694;2022-10-04T12:16:18;29.60;32.60
16503;DHT22;53067;48.114;11.694;2022-10-04T12:19:07;29.40;32.60
16503;DHT22;53067;48.114;11.694;2022-10-04T12:21:52;29.30;32.80
16503;DHT22;53067;48.114;11.694;2022-10-04T12:24:36;28.90;32.70
16503;DHT22;53067;48.114;11.694;2022-10-04T12:27:20;28.20;33.30
16503;DHT22;53067;48.114;11.694;2022-10-04T12:32:56;27.50;35.10
16503;DHT22;53067;48.114;11.694;2022-10-04T12:35:44;27.10;35.40
16503;DHT22;53067;48.114;11.694;2022-10-04T12:38:20;26.70;36.30
16503;DHT22;53067;48.114;11.694;2022-10-04T12:49:39;25.70;38.70
16503;DHT22;53067;48.114;11.694;2022-10-04T12:52:16;25.90;38.30
16503;DHT22;53067;48.114;11.694;2022-10-04T12:57:40;26.20;37.60
16503;DHT22;53067;48.114;11.694;2022-10-04T13:00:23;26.10;37.00
16503;DHT22;53067;48.114;11.694;2022-10-04T13:05:54;26.40;36.70
16503;DHT22;53067;48.114;11.694;2022-10-04T13:08:41;26.70;36.30
16503;DHT22;53067;48.114;11.694;2022-10-04T13:14:17;27.40;34.90
16503;DHT22;53067;48.114;11.694;2022-10-04T13:20:11;27.90;34.30
16503;DHT22;53067;48.114;11.694;2022-10-04T13:22:49;28.00;34.00
16503;DHT22;53067;48.114;11.694;2022-10-04T13:28:38;27.90;34.10
16503;DHT22;53067;48.114;11.694;2022-10-04T13:30:26;27.70;34.00
16503;DHT22;53067;48.114;11.694;2022-10-04T13:36:04;27.30;33.70
16503;DHT22;53067;48.114;11.694;2022-10-04T13:38:52;26.90;34.20
16503;DHT22;53067;48.114;11.694;2022-10-04T14:10:00;24.00;37.20
16503;DHT22;53067;48.114;11.694;2022-10-04T14:13:00;23.80;38.10
16503;DHT22;53067;48.114;11.694;2022-10-04T14:15:48;23.70;39.10
16503;DHT22;53067;48.114;11.694;2022-10-04T14:21:24;23.20;39.30
16503;DHT22;53067;48.114;11.694;2022-10-04T14:23:47;23.10;40.00
16503;DHT22;53067;48.114;11.694;2022-10-04T14:26:42;22.90;40.90
16503;DHT22;53067;48.114;11.694;2022-10-04T14:37:59;22.00;42.20
16503;DHT22;53067;48.114;11.694;2022-10-04T14:49:50;21.10;44.80
16503;DHT22;53067;48.114;11.694;2022-10-04T14:52:56;20.80;45.90
16503;DHT22;53067;48.114;11.694;2022-10-04T15:00:51;20.30;46.90
16503;DHT22;53067;48.114;11.694;2022-10-04T15:06:21;20.00;48.20
16503;DHT22;53067;48.114;11.694;2022-10-04T15:08:55;19.90;48.90
16503;DHT22;53067;48.114;11.694;2022-10-04T15:11:38;19.80;48.70
16503;DHT22;53067;48.114;11.694;2022-10-04T15:14:37;19.60;49.30
16503;DHT22;53067;48.114;11.694;2022-10-04T15:17:08;19.50;49.60
16503;DHT22;53067;48.114;11.694;2022-10-04T15:22:30;19.30;49.70
16503;DHT22;53067;48.114;11.694;2022-10-04T15:24:58;19.20;50.10
16503;DHT22;53067;48.114;11.694;2022-10-04T15:38:37;18.70;51.90
16503;DHT22;53067;48.114;11.694;2022-10-04T15:46:47;18.40;53.10
16503;DHT22;53067;48.114;11.694;2022-10-04T15:55:20;18.40;55.80
16503;DHT22;53067;48.114;11.694;2022-10-04T16:04:04;18.20;56.00
16503;DHT22;53067;48.114;11.694;2022-10-04T16:06:27;18.10;56.20
16503;DHT22;53067;48.114;11.694;2022-10-04T16:17:32;17.90;58.50
16503;DHT22;53067;48.114;11.694;2022-10-04T16:22:37;17.70;59.30
16503;DHT22;53067;48.114;11.694;2022-10-04T16:28:17;17.60;60.00
16503;DHT22;53067;48.114;11.694;2022-10-04T16:30:45;17.50;61.40
16503;DHT22;53067;48.114;11.694;2022-10-04T16:33:22;17.40;62.10
16503;DHT22;53067;48.114;11.694;2022-10-04T16:35:59;17.40;62.80
16503;DHT22;53067;48.114;11.694;2022-10-04T16:38:44;17.30;62.50
16503;DHT22;53067;48.114;11.694;2022-10-04T16:41:15;17.30;62.80
16503;DHT22;53067;48.114;11.694;2022-10-04T16:43:53;17.20;64.80
16503;DHT22;53067;48.114;11.694;2022-10-04T16:46:36;17.20;64.60
16503;DHT22;53067;48.114;11.694;2022-10-04T16:49:03;17.10;65.10
16503;DHT22;53067;48.114;11.694;2022-10-04T16:57:25;16.90;64.90
16503;DHT22;53067;48.114;11.694;2022-10-04T17:00:24;16.80;64.80
16503;DHT22;53067;48.114;11.694;2022-10-04T17:02:51;16.70;65.70
16503;DHT22;53067;48.114;11.694;2022-10-04T17:13:42;16.70;66.20
16503;DHT22;53067;48.114;11.694;2022-10-04T17:17:14;16.70;64.60
16503;DHT22;53067;48.114;11.694;2022-10-04T17:21:43;16.30;64.90
16503;DHT22;53067;48.114;11.694;2022-10-04T17:27:40;16.10;65.10
16503;DHT22;53067;48.114;11.694;2022-10-04T17:41:41;15.50;66.30
16503;DHT22;53067;48.114;11.694;2022-10-04T17:47:26;15.20;66.80
16503;DHT22;53067;48.114;11.694;2022-10-04T17:50:14;15.20;67.20
16503;DHT22;53067;48.114;11.694;2022-10-04T17:53:03;15.10;67.50
16503;DHT22;53067;48.114;11.694;2022-10-04T17:55:54;15.00;67.90
16503;DHT22;53067;48.114;11.694;2022-10-04T17:58:49;14.80;67.90
16503;DHT22;53067;48.114;11.694;2022-10-04T18:01:41;14.80;68.30
16503;DHT22;53067;48.114;11.694;2022-10-04T18:04:28;14.70;68.50
16503;DHT22;53067;48.114;11.694;2022-10-04T18:09:40;14.60;68.90
16503;DHT22;53067;48.114;11.694;2022-10-04T18:12:11;14.50;69.90
16503;DHT22;53067;48.114;11.694;2022-10-04T18:14:54;14.50;69.30
16503;DHT22;53067;48.114;11.694;2022-10-04T18:17:31;14.50;69.30
16503;DHT22;53067;48.114;11.694;2022-10-04T18:19:58;14.40;69.60
16503;DHT22;53067;48.114;11.694;2022-10-04T18:22:24;14.40;69.80
16503;DHT22;53067;48.114;11.694;2022-10-04T18:33:27;14.10;70.00
16503;DHT22;53067;48.114;11.694;2022-10-04T18:36:22;14.10;70.10
16503;DHT22;53067;48.114;11.694;2022-10-04T18:42:33;14.00;70.20
16503;DHT22;53067;48.114;11.694;2022-10-04T18:44:29;14.00;70.50
16503;DHT22;53067;48.114;11.694;2022-10-04T18:46:59;13.90;70.50
16503;DHT22;53067;48.114;11.694;2022-10-04T18:49:29;13.90;70.60
16503;DHT22;53067;48.114;11.694;2022-10-04T18:52:18;13.80;70.70
16503;DHT22;53067;48.114;11.694;2022-10-04T18:57:35;13.70;71.10
16503;DHT22;53067;48.114;11.694;2022-10-04T19:00:11;13.70;71.20
16503;DHT22;53067;48.114;11.694;2022-10-04T19:05:53;13.50;71.10
16503;DHT22;53067;48.114;11.694;2022-10-04T19:08:29;13.50;71.30
16503;DHT22;53067;48.114;11.694;2022-10-04T19:10:58;13.40;71.40
16503;DHT22;53067;48.114;11.694;2022-10-04T19:19:22;13.20;71.60
16503;DHT22;53067;48.114;11.694;2022-10-04T19:27:37;13.10;72.00
16503;DHT22;53067;48.114;11.694;2022-10-04T19:30:18;13.10;72.00
16503;DHT22;53067;48.114;11.694;2022-10-04T19:33:14;13.00;71.90
16503;DHT22;53067;48.114;11.694;2022-10-04T19:49:26;12.80;72.00
16503;DHT22;53067;48.114;11.694;2022-10-04T19:52:10;12.80;72.10
16503;DHT22;53067;48.114;11.694;2022-10-04T19:54:28;12.80;72.20
16503;DHT22;53067;48.114;11.694;2022-10-04T19:56:56;12.70;72.50
16503;DHT22;53067;48.114;11.694;2022-10-04T19:59:39;12.60;72.30
16503;DHT22;53067;48.114;11.694;2022-10-04T20:02:11;12.60;72.40
16503;DHT22;53067;48.114;11.694;2022-10-04T20:04:39;12.60;72.40
16503;DHT22;53067;48.114;11.694;2022-10-04T20:07:20;12.50;72.50
16503;DHT22;53067;48.114;11.694;2022-10-04T20:09:55;12.50;72.00
16503;DHT22;53067;48.114;11.694;2022-10-04T20:12:40;12.50;72.70
16503;DHT22;53067;48.114;11.694;2022-10-04T20:17:47;12.40;72.80
16503;DHT22;53067;48.114;11.694;2022-10-04T20:23:06;12.40;72.80
16503;DHT22;53067;48.114;11.694;2022-10-04T20:31:02;12.30;73.00
16503;DHT22;53067;48.114;11.694;2022-10-04T20:33:45;12.30;73.10
16503;DHT22;53067;48.114;11.694;2022-10-04T20:39:00;12.20;73.60
16503;DHT22;53067;48.114;11.694;2022-10-04T20:44:39;12.10;73.30
16503;DHT22;53067;48.114;11.694;2022-10-04T20:47:29;12.10;73.40
16503;DHT22;53067;48.114;11.694;2022-10-04T20:52:52;12.00;73.50
16503;DHT22;53067;48.114;11.694;2022-10-04T20:55:26;12.00;73.30
16503;DHT22;53067;48.114;11.694;2022-10-04T20:58:00;12.00;73.40
16503;DHT22;53067;48.114;11.694;2022-10-04T21:00:31;12.00;73.30
16503;DHT22;53067;48.114;11.694;2022-10-04T21:03:07;12.00;73.50
16503;DHT22;53067;48.114;11.694;2022-10-04T21:05:36;11.90;73.60
16503;DHT22;53067;48.114;11.694;2022-10-04T21:08:24;11.90;73.60
16503;DHT22;53067;48.114;11.694;2022-10-04T21:11:24;11.90;73.70
16503;DHT22;53067;48.114;11.694;2022-10-04T21:16:08;11.80;73.90
16503;DHT22;53067;48.114;11.694;2022-10-04T21:18:35;11.80;74.00
16503;DHT22;53067;48.114;11.694;2022-10-04T21:21:03;11.80;74.20
16503;DHT22;53067;48.114;11.694;2022-10-04T21:23:32;11.80;74.00
16503;DHT22;53067;48.114;11.694;2022-10-04T21:28:53;11.70;74.20
16503;DHT22;53067;48.114;11.694;2022-10-04T21:31:22;11.70;74.40
16503;DHT22;53067;48.114;11.694;2022-10-04T21:33:50;11.70;74.40
16503;DHT22;53067;48.114;11.694;2022-10-04T21:36:17;11.70;74.40
16503;DHT22;53067;48.114;11.694;2022-10-04T21:38:45;11.60;74.30
16503;DHT22;53067;48.114;11.694;2022-10-04T21:41:12;11.50;74.30
16503;DHT22;53067;48.114;11.694;2022-10-04T21:43:40;11.70;74.20
16503;DHT22;53067;48.114;11.694;2022-10-04T21:46:07;11.60;74.00
16503;DHT22;53067;48.114;11.694;2022-10-04T21:48:35;11.60;74.00
16503;DHT22;53067;48.114;11.694;2022-10-04T21:51:02;11.60;74.00
16503;DHT22;53067;48.114;11.694;2022-10-04T21:53:30;11.60;74.00
16503;DHT22;53067;48.114;11.694;2022-10-04T21:55:58;11.50;74.00
16503;DHT22;53067;48.114;11.694;2022-10-04T21:58:25;11.50;74.20
16503;DHT22;53067;48.114;11.694;2022-10-04T22:00:53;11.50;74.30
16503;DHT22;53067;48.114;11.694;2022-10-04T22:03:20;11.50;74.20
16503;DHT22;53067;48.114;11.694;2022-10-04T22:05:48;11.50;74.20
16503;DHT22;53067;48.114;11.694;2022-10-04T22:08:15;11.40;74.20
16503;DHT22;53067;48.114;11.694;2022-10-04T22:10:43;11.40;74.10
16503;DHT22;53067;48.114;11.694;2022-10-04T22:13:11;11.40;73.90
16503;DHT22;53067;48.114;11.694;2022-10-04T22:15:38;11.30;73.80
16503;DHT22;53067;48.114;11.694;2022-10-04T22:18:06;11.30;74.10
16503;DHT22;53067;48.114;11.694;2022-10-04T22:20:33;11.30;74.30
16503;DHT22;53067;48.114;11.694;2022-10-04T22:23:01;11.20;74.40
16503;DHT22;53067;48.114;11.694;2022-10-04T22:25:30;11.20;74.40
16503;DHT22;53067;48.114;11.694;2022-10-04T22:27:59;11.20;74.60
16503;DHT22;53067;48.114;11.694;2022-10-04T22:30:28;11.10;74.60
16503;DHT22;53067;48.114;11.694;2022-10-04T22:33:00;11.10;74.70
16503;DHT22;53067;48.114;11.694;2022-10-04T22:35:29;11.10;74.70
16503;DHT22;53067;48.114;11.694;2022-10-04T22:37:59;11.10;74.60
16503;DHT22;53067;48.114;11.694;2022-10-04T22:40:28;11.00;74.60
16503;DHT22;53067;48.114;11.694;2022-10-04T22:42:56;11.00;74.80
16503;DHT22;53067;48.114;11.694;2022-10-04T22:45:28;11.00;74.90
16503;DHT22;53067;48.114;11.694;2022-10-04T22:47:58;11.00;75.10
16503;DHT22;53067;48.114;11.694;2022-10-04T22:50:32;11.00;75.00
16503;DHT22;53067;48.114;11.694;2022-10-04T22:53:20;11.00;75.20
16503;DHT22;53067;48.114;11.694;2022-10-04T22:55:34;11.00;75.10
16503;DHT22;53067;48.114;11.694;2022-10-04T22:58:02;11.00;75.20
16503;DHT22;53067;48.114;11.694;2022-10-04T23:00:29;10.90;75.20
16503;DHT22;53067;48.114;11.694;2022-10-04T23:02:57;10.90;75.20
16503;DHT22;53067;48.114;11.694;2022-10-04T23:05:25;10.90;75.90
16503;DHT22;53067;48.114;11.694;2022-10-04T23:07:53;10.90;75.00
16503;DHT22;53067;48.114;11.694;2022-10-04T23:10:20;10.90;75.10
16503;DHT22;53067;48.114;11.694;2022-10-04T23:12:48;10.90;75.10
16503;DHT22;53067;48.114;11.694;2022-10-04T23:15:18;10.90;75.00
16503;DHT22;53067;48.114;11.694;2022-10-04T23:17:55;10.90;74.90
16503;DHT22;53067;48.114;11.694;2022-10-04T23:20:21;10.90;74.80
16503;DHT22;53067;48.114;11.694;2022-10-04T23:22:51;10.90;74.80
16503;DHT22;53067;48.114;11.694;2022-10-04T23:25:27;10.90;74.80
16503;DHT22;53067;48.114;11.694;2022-10-04T23:28:17;10.80;74.60
16503;DHT22;53067;48.114;11.694;2022-10-04T23:31:07;10.80;74.70
16503;DHT22;53067;48.114;11.694;2022-10-04T23:33:33;10.80;74.80
16503;DHT22;53067;48.114;11.694;2022-10-04T23:36:01;10.70;75.00
16503;DHT22;53067;48.114;11.694;2022-10-04T23:38:28;10.70;75.00
16503;DHT22;53067;48.114;11.694;2022-10-04T23:40:56;10.70;74.90
16503;DHT22;53067;48.114;11.694;2022-10-04T23:43:24;10.70;75.00
16503;DHT22;53067;48.114;11.694;2022-10-04T23:45:54;10.60;74.90
16503;DHT22;53067;48.114;11.694;2022-10-04T23:48:24;10.60;74.90
16503;DHT22;53067;48.114;11.694;2022-10-04T23:50:55;10.60;75.00
16503;DHT22;53067;48.114;11.694;2022-10-04T23:53:27;10.60;75.00
16503;DHT22;53067;48.114;11.694;2022-10-04T23:56:05;10.50;75.00
16503;DHT22;53067;48.114;11.694;2022-10-04T23:58:32;10.50;75.30
